sensor_id;sensor_type;location;lat;lon;timestamp;P1;durP1;ratioP1;P2;durP2;ratioP2
71771;SDS011;59606;52.138;5.424;2023-09-30T00:02:26;8.93;;;2.83;;
71771;SDS011;59606;52.138;5.424;2023-09-30T00:04:54;7.93;;;3.25;;
71771;SDS011;59606;52.138;5.424;2023-09-30T00:07:20;12.32;;;3.58;;
71771;SDS011;59606;52.138;5.424;2023-09-30T00:09:47;9.27;;;2.63;;
71771;SDS011;59606;52.138;5.424;2023-09-30T00:12:14;14.38;;;3.35;;
71771;SDS011;59606;52.138;5.424;2023-09-30T00:14:41;9.68;;;3.47;;
71771;SDS011;59606;52.138;5.424;2023-09-30T00:17:07;8.55;;;2.55;;
71771;SDS011;59606;52.138;5.424;2023-09-30T00:19:34;13.85;;;3.33;;
71771;SDS011;59606;52.138;5.424;2023-09-30T00:22:00;8.03;;;2.60;;
71771;SDS011;59606;52.138;5.424;2023-09-30T00:24:27;9.43;;;2.90;;
71771;SDS011;59606;52.138;5.424;2023-09-30T00:26:54;8.75;;;3.20;;
71771;SDS011;59606;52.138;5.424;2023-09-30T00:29:20;9.55;;;3.33;;
71771;SDS011;59606;52.138;5.424;2023-09-30T00:31:47;7.38;;;2.80;;
71771;SDS011;59606;52.138;5.424;2023-09-30T00:34:14;10.40;;;3.20;;
71771;SDS011;59606;52.138;5.424;2023-09-30T00:36:41;8.48;;;3.08;;
71771;SDS011;59606;52.138;5.424;2023-09-30T00:39:07;12.63;;;3.42;;
71771;SDS011;59606;52.138;5.424;2023-09-30T00:41:34;12.90;;;3.28;;
71771;SDS011;59606;52.138;5.424;2023-09-30T00:44:01;9.80;;;3.17;;
71771;SDS011;59606;52.138;5.424;2023-09-30T00:46:29;11.27;;;3.20;;
71771;SDS011;59606;52.138;5.424;2023-09-30T00:48:59;10.80;;;2.65;;
71771;SDS011;59606;52.138;5.424;2023-09-30T00:51:26;11.50;;;4.03;;
71771;SDS011;59606;52.138;5.424;2023-09-30T00:53:55;10.15;;;3.65;;
71771;SDS011;59606;52.138;5.424;2023-09-30T00:56:26;9.82;;;3.58;;
71771;SDS011;59606;52.138;5.424;2023-09-30T00:58:54;12.60;;;3.70;;
71771;SDS011;59606;52.138;5.424;2023-09-30T01:01:21;9.23;;;3.70;;
71771;SDS011;59606;52.138;5.424;2023-09-30T01:03:49;10.13;;;3.28;;
71771;SDS011;59606;52.138;5.424;2023-09-30T01:06:16;12.07;;;3.63;;
71771;SDS011;59606;52.138;5.424;2023-09-30T01:08:42;11.82;;;4.05;;
71771;SDS011;59606;52.138;5.424;2023-09-30T01:11:09;10.17;;;3.80;;
71771;SDS011;59606;52.138;5.424;2023-09-30T01:13:36;10.95;;;4.18;;
71771;SDS011;59606;52.138;5.424;2023-09-30T01:16:07;12.07;;;4.43;;
71771;SDS011;59606;52.138;5.424;2023-09-30T01:18:36;12.50;;;3.72;;
71771;SDS011;59606;52.138;5.424;2023-09-30T01:21:05;11.60;;;3.45;;
71771;SDS011;59606;52.138;5.424;2023-09-30T01:23:33;11.23;;;3.70;;
71771;SDS011;59606;52.138;5.424;2023-09-30T01:26:11;13.00;;;3.47;;
71771;SDS011;59606;52.138;5.424;2023-09-30T01:28:39;10.32;;;3.97;;
71771;SDS011;59606;52.138;5.424;2023-09-30T01:31:06;9.57;;;4.43;;
71771;SDS011;59606;52.138;5.424;2023-09-30T01:33:33;9.40;;;3.42;;
71771;SDS011;59606;52.138;5.424;2023-09-30T01:36:00;10.20;;;3.47;;
71771;SDS011;59606;52.138;5.424;2023-09-30T01:38:27;11.18;;;2.72;;
71771;SDS011;59606;52.138;5.424;2023-09-30T01:40:53;12.18;;;3.75;;
71771;SDS011;59606;52.138;5.424;2023-09-30T01:43:23;14.30;;;4.05;;
71771;SDS011;59606;52.138;5.424;2023-09-30T01:45:49;15.27;;;4.75;;
71771;SDS011;59606;52.138;5.424;2023-09-30T01:48:16;10.90;;;4.47;;
71771;SDS011;59606;52.138;5.424;2023-09-30T01:50:43;13.13;;;4.20;;
71771;SDS011;59606;52.138;5.424;2023-09-30T01:53:09;9.48;;;3.75;;
71771;SDS011;59606;52.138;5.424;2023-09-30T01:55:36;10.35;;;4.38;;
71771;SDS011;59606;52.138;5.424;2023-09-30T01:58:03;11.05;;;4.38;;
71771;SDS011;59606;52.138;5.424;2023-09-30T02:00:29;13.60;;;4.07;;
71771;SDS011;59606;52.138;5.424;2023-09-30T02:02:57;13.95;;;3.85;;
71771;SDS011;59606;52.138;5.424;2023-09-30T02:05:24;9.07;;;3.58;;
71771;SDS011;59606;52.138;5.424;2023-09-30T02:07:50;10.85;;;3.85;;
71771;SDS011;59606;52.138;5.424;2023-09-30T02:10:18;11.32;;;3.85;;
71771;SDS011;59606;52.138;5.424;2023-09-30T02:12:46;14.87;;;4.97;;
71771;SDS011;59606;52.138;5.424;2023-09-30T02:15:13;13.63;;;4.45;;
71771;SDS011;59606;52.138;5.424;2023-09-30T02:17:40;11.00;;;4.05;;
71771;SDS011;59606;52.138;5.424;2023-09-30T02:20:12;11.90;;;4.03;;
71771;SDS011;59606;52.138;5.424;2023-09-30T02:22:42;8.25;;;4.28;;
71771;SDS011;59606;52.138;5.424;2023-09-30T02:25:11;14.20;;;4.80;;
71771;SDS011;59606;52.138;5.424;2023-09-30T02:27:39;10.38;;;4.35;;
71771;SDS011;59606;52.138;5.424;2023-09-30T02:30:11;12.95;;;4.68;;
71771;SDS011;59606;52.138;5.424;2023-09-30T02:32:42;11.10;;;4.50;;
71771;SDS011;59606;52.138;5.424;2023-09-30T02:35:15;13.88;;;5.68;;
71771;SDS011;59606;52.138;5.424;2023-09-30T02:37:42;14.57;;;5.07;;
71771;SDS011;59606;52.138;5.424;2023-09-30T02:40:09;13.75;;;5.35;;
71771;SDS011;59606;52.138;5.424;2023-09-30T02:42:39;16.55;;;5.45;;
71771;SDS011;59606;52.138;5.424;2023-09-30T02:45:07;17.08;;;5.53;;
71771;SDS011;59606;52.138;5.424;2023-09-30T02:47:35;15.90;;;6.40;;
71771;SDS011;59606;52.138;5.424;2023-09-30T02:50:02;11.50;;;5.23;;
71771;SDS011;59606;52.138;5.424;2023-09-30T02:52:30;12.68;;;5.57;;
71771;SDS011;59606;52.138;5.424;2023-09-30T02:55:00;14.90;;;4.95;;
71771;SDS011;59606;52.138;5.424;2023-09-30T02:57:27;17.92;;;5.35;;
71771;SDS011;59606;52.138;5.424;2023-09-30T02:59:58;13.63;;;5.15;;
71771;SDS011;59606;52.138;5.424;2023-09-30T03:02:26;13.07;;;4.87;;
71771;SDS011;59606;52.138;5.424;2023-09-30T03:04:53;14.48;;;5.43;;
71771;SDS011;59606;52.138;5.424;2023-09-30T03:07:20;16.85;;;5.90;;
71771;SDS011;59606;52.138;5.424;2023-09-30T03:09:47;13.38;;;5.60;;
71771;SDS011;59606;52.138;5.424;2023-09-30T03:12:14;13.38;;;5.25;;
71771;SDS011;59606;52.138;5.424;2023-09-30T03:14:41;17.37;;;6.43;;
71771;SDS011;59606;52.138;5.424;2023-09-30T03:17:09;12.35;;;5.60;;
71771;SDS011;59606;52.138;5.424;2023-09-30T03:19:38;17.23;;;5.75;;
71771;SDS011;59606;52.138;5.424;2023-09-30T03:22:05;14.43;;;5.88;;
71771;SDS011;59606;52.138;5.424;2023-09-30T03:24:38;16.52;;;6.22;;
71771;SDS011;59606;52.138;5.424;2023-09-30T03:27:06;13.70;;;4.80;;
71771;SDS011;59606;52.138;5.424;2023-09-30T03:29:37;14.43;;;6.28;;
71771;SDS011;59606;52.138;5.424;2023-09-30T03:32:05;14.50;;;5.22;;
71771;SDS011;59606;52.138;5.424;2023-09-30T03:34:33;12.75;;;5.38;;
71771;SDS011;59606;52.138;5.424;2023-09-30T03:37:02;15.82;;;5.85;;
71771;SDS011;59606;52.138;5.424;2023-09-30T03:39:29;14.07;;;5.23;;
71771;SDS011;59606;52.138;5.424;2023-09-30T03:41:56;14.93;;;6.53;;
71771;SDS011;59606;52.138;5.424;2023-09-30T03:44:24;16.52;;;6.07;;
71771;SDS011;59606;52.138;5.424;2023-09-30T03:46:51;17.25;;;6.38;;
71771;SDS011;59606;52.138;5.424;2023-09-30T03:49:18;13.48;;;6.03;;
71771;SDS011;59606;52.138;5.424;2023-09-30T03:51:48;13.37;;;6.20;;
71771;SDS011;59606;52.138;5.424;2023-09-30T03:54:17;14.35;;;5.93;;
71771;SDS011;59606;52.138;5.424;2023-09-30T03:56:44;16.15;;;6.28;;
71771;SDS011;59606;52.138;5.424;2023-09-30T03:59:13;14.80;;;5.95;;
71771;SDS011;59606;52.138;5.424;2023-09-30T04:01:39;17.83;;;6.63;;
71771;SDS011;59606;52.138;5.424;2023-09-30T04:04:07;13.67;;;6.50;;
71771;SDS011;59606;52.138;5.424;2023-09-30T04:06:36;18.13;;;6.82;;
71771;SDS011;59606;52.138;5.424;2023-09-30T04:09:07;15.73;;;6.68;;
71771;SDS011;59606;52.138;5.424;2023-09-30T04:11:37;17.90;;;7.55;;
71771;SDS011;59606;52.138;5.424;2023-09-30T04:14:05;18.33;;;7.25;;
71771;SDS011;59606;52.138;5.424;2023-09-30T04:16:33;17.20;;;7.33;;
71771;SDS011;59606;52.138;5.424;2023-09-30T04:19:00;18.70;;;7.53;;
71771;SDS011;59606;52.138;5.424;2023-09-30T04:21:27;17.98;;;7.20;;
71771;SDS011;59606;52.138;5.424;2023-09-30T04:23:56;18.70;;;8.00;;
71771;SDS011;59606;52.138;5.424;2023-09-30T04:26:24;13.90;;;7.47;;
71771;SDS011;59606;52.138;5.424;2023-09-30T04:28:51;18.80;;;7.77;;
71771;SDS011;59606;52.138;5.424;2023-09-30T04:31:19;16.63;;;7.47;;
71771;SDS011;59606;52.138;5.424;2023-09-30T04:33:48;20.30;;;8.13;;
71771;SDS011;59606;52.138;5.424;2023-09-30T04:36:17;16.67;;;7.93;;
71771;SDS011;59606;52.138;5.424;2023-09-30T04:38:44;18.58;;;8.02;;
71771;SDS011;59606;52.138;5.424;2023-09-30T04:41:11;19.03;;;7.77;;
71771;SDS011;59606;52.138;5.424;2023-09-30T04:43:38;17.75;;;8.48;;
71771;SDS011;59606;52.138;5.424;2023-09-30T04:46:05;19.95;;;8.82;;
71771;SDS011;59606;52.138;5.424;2023-09-30T04:48:35;21.48;;;8.57;;
71771;SDS011;59606;52.138;5.424;2023-09-30T04:51:05;17.60;;;8.43;;
71771;SDS011;59606;52.138;5.424;2023-09-30T04:53:32;18.13;;;7.83;;
71771;SDS011;59606;52.138;5.424;2023-09-30T04:56:00;22.30;;;9.05;;
71771;SDS011;59606;52.138;5.424;2023-09-30T04:58:27;24.70;;;8.95;;
71771;SDS011;59606;52.138;5.424;2023-09-30T05:00:56;19.08;;;7.75;;
71771;SDS011;59606;52.138;5.424;2023-09-30T05:03:23;22.75;;;8.18;;
71771;SDS011;59606;52.138;5.424;2023-09-30T05:05:51;17.83;;;7.87;;
71771;SDS011;59606;52.138;5.424;2023-09-30T05:08:22;20.67;;;8.43;;
71771;SDS011;59606;52.138;5.424;2023-09-30T05:10:51;19.10;;;8.43;;
71771;SDS011;59606;52.138;5.424;2023-09-30T05:13:21;20.05;;;8.18;;
71771;SDS011;59606;52.138;5.424;2023-09-30T05:15:49;15.88;;;8.55;;
71771;SDS011;59606;52.138;5.424;2023-09-30T05:18:18;24.40;;;9.20;;
71771;SDS011;59606;52.138;5.424;2023-09-30T05:20:44;19.73;;;9.15;;
71771;SDS011;59606;52.138;5.424;2023-09-30T05:23:11;20.52;;;9.43;;
71771;SDS011;59606;52.138;5.424;2023-09-30T05:25:41;24.00;;;9.20;;
71771;SDS011;59606;52.138;5.424;2023-09-30T05:28:09;22.55;;;9.20;;
71771;SDS011;59606;52.138;5.424;2023-09-30T05:30:37;21.93;;;10.77;;
71771;SDS011;59606;52.138;5.424;2023-09-30T05:33:04;19.17;;;9.35;;
71771;SDS011;59606;52.138;5.424;2023-09-30T05:35:30;24.10;;;11.05;;
71771;SDS011;59606;52.138;5.424;2023-09-30T05:37:58;23.50;;;10.43;;
71771;SDS011;59606;52.138;5.424;2023-09-30T05:40:25;23.30;;;11.48;;
71771;SDS011;59606;52.138;5.424;2023-09-30T05:42:53;25.50;;;11.37;;
71771;SDS011;59606;52.138;5.424;2023-09-30T05:45:27;26.58;;;11.48;;
71771;SDS011;59606;52.138;5.424;2023-09-30T05:47:54;25.20;;;10.93;;
71771;SDS011;59606;52.138;5.424;2023-09-30T05:50:24;21.58;;;9.85;;
71771;SDS011;59606;52.138;5.424;2023-09-30T05:52:52;25.42;;;12.18;;
71771;SDS011;59606;52.138;5.424;2023-09-30T05:55:19;21.70;;;11.20;;
71771;SDS011;59606;52.138;5.424;2023-09-30T05:57:48;22.38;;;11.35;;
71771;SDS011;59606;52.138;5.424;2023-09-30T06:00:18;22.02;;;10.98;;
71771;SDS011;59606;52.138;5.424;2023-09-30T06:03:00;22.98;;;11.43;;
71771;SDS011;59606;52.138;5.424;2023-09-30T06:05:27;24.05;;;11.68;;
71771;SDS011;59606;52.138;5.424;2023-09-30T06:08:01;25.93;;;12.73;;
71771;SDS011;59606;52.138;5.424;2023-09-30T06:10:30;22.90;;;11.52;;
71771;SDS011;59606;52.138;5.424;2023-09-30T06:12:57;21.75;;;10.32;;
71771;SDS011;59606;52.138;5.424;2023-09-30T06:15:25;22.67;;;11.20;;
71771;SDS011;59606;52.138;5.424;2023-09-30T06:17:55;22.73;;;12.55;;
71771;SDS011;59606;52.138;5.424;2023-09-30T06:20:23;24.47;;;11.43;;
71771;SDS011;59606;52.138;5.424;2023-09-30T06:22:53;28.45;;;13.15;;
71771;SDS011;59606;52.138;5.424;2023-09-30T06:25:20;27.17;;;12.70;;
71771;SDS011;59606;52.138;5.424;2023-09-30T06:27:48;22.17;;;11.32;;
71771;SDS011;59606;52.138;5.424;2023-09-30T06:30:15;24.17;;;11.93;;
71771;SDS011;59606;52.138;5.424;2023-09-30T06:32:44;23.77;;;12.00;;
71771;SDS011;59606;52.138;5.424;2023-09-30T06:35:11;24.55;;;11.68;;
71771;SDS011;59606;52.138;5.424;2023-09-30T06:37:39;28.13;;;12.80;;
71771;SDS011;59606;52.138;5.424;2023-09-30T06:40:06;26.73;;;12.57;;
71771;SDS011;59606;52.138;5.424;2023-09-30T06:42:35;27.58;;;12.85;;
71771;SDS011;59606;52.138;5.424;2023-09-30T06:45:04;24.13;;;12.37;;
71771;SDS011;59606;52.138;5.424;2023-09-30T06:47:34;29.27;;;12.95;;
71771;SDS011;59606;52.138;5.424;2023-09-30T06:50:04;21.90;;;13.02;;
71771;SDS011;59606;52.138;5.424;2023-09-30T06:52:36;28.35;;;12.88;;
71771;SDS011;59606;52.138;5.424;2023-09-30T06:55:04;24.35;;;13.10;;
71771;SDS011;59606;52.138;5.424;2023-09-30T06:57:32;23.83;;;12.80;;
71771;SDS011;59606;52.138;5.424;2023-09-30T06:59:59;28.13;;;13.32;;
71771;SDS011;59606;52.138;5.424;2023-09-30T07:02:26;26.20;;;13.60;;
71771;SDS011;59606;52.138;5.424;2023-09-30T07:04:53;24.48;;;13.23;;
71771;SDS011;59606;52.138;5.424;2023-09-30T07:07:20;31.85;;;13.02;;
71771;SDS011;59606;52.138;5.424;2023-09-30T07:09:46;29.10;;;12.60;;
71771;SDS011;59606;52.138;5.424;2023-09-30T07:12:13;27.35;;;13.07;;
71771;SDS011;59606;52.138;5.424;2023-09-30T07:14:39;23.48;;;13.20;;
71771;SDS011;59606;52.138;5.424;2023-09-30T07:17:06;27.83;;;12.82;;
71771;SDS011;59606;52.138;5.424;2023-09-30T07:19:32;23.35;;;11.75;;
71771;SDS011;59606;52.138;5.424;2023-09-30T07:21:59;23.40;;;12.10;;
71771;SDS011;59606;52.138;5.424;2023-09-30T07:24:30;23.63;;;12.88;;
71771;SDS011;59606;52.138;5.424;2023-09-30T07:26:57;25.25;;;12.95;;
71771;SDS011;59606;52.138;5.424;2023-09-30T07:29:25;24.40;;;13.52;;
71771;SDS011;59606;52.138;5.424;2023-09-30T07:31:52;25.80;;;13.10;;
71771;SDS011;59606;52.138;5.424;2023-09-30T07:34:19;26.23;;;13.50;;
71771;SDS011;59606;52.138;5.424;2023-09-30T07:36:46;26.05;;;13.32;;
71771;SDS011;59606;52.138;5.424;2023-09-30T07:39:12;25.20;;;12.85;;
71771;SDS011;59606;52.138;5.424;2023-09-30T07:41:39;23.70;;;12.43;;
71771;SDS011;59606;52.138;5.424;2023-09-30T07:44:05;22.70;;;12.05;;
71771;SDS011;59606;52.138;5.424;2023-09-30T07:46:32;22.40;;;12.30;;
71771;SDS011;59606;52.138;5.424;2023-09-30T07:48:59;25.17;;;12.57;;
71771;SDS011;59606;52.138;5.424;2023-09-30T07:51:25;23.40;;;12.23;;
71771;SDS011;59606;52.138;5.424;2023-09-30T07:53:52;23.85;;;11.48;;
71771;SDS011;59606;52.138;5.424;2023-09-30T07:56:19;22.88;;;12.25;;
71771;SDS011;59606;52.138;5.424;2023-09-30T07:58:45;25.73;;;11.93;;
71771;SDS011;59606;52.138;5.424;2023-09-30T08:01:12;21.88;;;11.20;;
71771;SDS011;59606;52.138;5.424;2023-09-30T08:03:38;23.88;;;11.35;;
71771;SDS011;59606;52.138;5.424;2023-09-30T08:06:06;21.52;;;9.77;;
71771;SDS011;59606;52.138;5.424;2023-09-30T08:08:35;21.63;;;10.77;;
71771;SDS011;59606;52.138;5.424;2023-09-30T08:11:02;24.07;;;10.83;;
71771;SDS011;59606;52.138;5.424;2023-09-30T08:13:29;19.70;;;10.25;;
71771;SDS011;59606;52.138;5.424;2023-09-30T08:15:55;22.42;;;10.52;;
71771;SDS011;59606;52.138;5.424;2023-09-30T08:18:22;16.88;;;9.43;;
71771;SDS011;59606;52.138;5.424;2023-09-30T08:20:49;18.27;;;10.57;;
71771;SDS011;59606;52.138;5.424;2023-09-30T08:23:17;23.90;;;9.90;;
71771;SDS011;59606;52.138;5.424;2023-09-30T08:25:43;18.63;;;10.10;;
71771;SDS011;59606;52.138;5.424;2023-09-30T08:28:11;19.40;;;9.93;;
71771;SDS011;59606;52.138;5.424;2023-09-30T08:30:38;21.85;;;9.10;;
71771;SDS011;59606;52.138;5.424;2023-09-30T08:33:05;17.40;;;9.45;;
71771;SDS011;59606;52.138;5.424;2023-09-30T08:35:37;21.53;;;9.23;;
71771;SDS011;59606;52.138;5.424;2023-09-30T08:38:07;14.73;;;8.40;;
71771;SDS011;59606;52.138;5.424;2023-09-30T08:40:33;17.67;;;8.43;;
71771;SDS011;59606;52.138;5.424;2023-09-30T08:43:00;19.70;;;8.60;;
71771;SDS011;59606;52.138;5.424;2023-09-30T08:45:32;26.17;;;9.45;;
71771;SDS011;59606;52.138;5.424;2023-09-30T08:47:59;28.13;;;8.17;;
71771;SDS011;59606;52.138;5.424;2023-09-30T08:50:32;18.23;;;8.48;;
71771;SDS011;59606;52.138;5.424;2023-09-30T08:53:01;15.02;;;7.68;;
71771;SDS011;59606;52.138;5.424;2023-09-30T08:55:30;24.10;;;8.10;;
71771;SDS011;59606;52.138;5.424;2023-09-30T08:58:00;17.20;;;7.18;;
71771;SDS011;59606;52.138;5.424;2023-09-30T09:00:27;15.23;;;7.10;;
71771;SDS011;59606;52.138;5.424;2023-09-30T09:02:54;15.90;;;7.13;;
71771;SDS011;59606;52.138;5.424;2023-09-30T09:05:21;15.00;;;6.80;;
71771;SDS011;59606;52.138;5.424;2023-09-30T09:07:48;23.33;;;7.28;;
71771;SDS011;59606;52.138;5.424;2023-09-30T09:10:16;13.98;;;6.82;;
71771;SDS011;59606;52.138;5.424;2023-09-30T09:12:43;25.53;;;7.10;;
71771;SDS011;59606;52.138;5.424;2023-09-30T09:15:23;17.00;;;6.80;;
71771;SDS011;59606;52.138;5.424;2023-09-30T09:17:51;14.95;;;6.93;;
71771;SDS011;59606;52.138;5.424;2023-09-30T09:20:22;16.25;;;7.10;;
71771;SDS011;59606;52.138;5.424;2023-09-30T09:22:52;14.70;;;6.32;;
71771;SDS011;59606;52.138;5.424;2023-09-30T09:25:22;13.97;;;5.87;;
71771;SDS011;59606;52.138;5.424;2023-09-30T09:27:50;15.50;;;5.50;;
71771;SDS011;59606;52.138;5.424;2023-09-30T09:32:54;15.30;;;5.70;;
71771;SDS011;59606;52.138;5.424;2023-09-30T09:35:22;13.05;;;6.05;;
71771;SDS011;59606;52.138;5.424;2023-09-30T09:37:55;14.87;;;5.07;;
71771;SDS011;59606;52.138;5.424;2023-09-30T09:40:22;13.55;;;4.40;;
71771;SDS011;59606;52.138;5.424;2023-09-30T09:42:53;12.43;;;3.92;;
71771;SDS011;59606;52.138;5.424;2023-09-30T09:45:22;9.73;;;4.30;;
71771;SDS011;59606;52.138;5.424;2023-09-30T09:47:51;15.07;;;4.32;;
71771;SDS011;59606;52.138;5.424;2023-09-30T09:50:18;13.57;;;4.67;;
71771;SDS011;59606;52.138;5.424;2023-09-30T09:52:47;12.45;;;5.10;;
71771;SDS011;59606;52.138;5.424;2023-09-30T09:55:17;13.60;;;4.30;;
71771;SDS011;59606;52.138;5.424;2023-09-30T09:57:45;10.48;;;4.03;;
71771;SDS011;59606;52.138;5.424;2023-09-30T10:00:16;10.77;;;3.00;;
71771;SDS011;59606;52.138;5.424;2023-09-30T10:02:47;10.90;;;3.27;;
71771;SDS011;59606;52.138;5.424;2023-09-30T10:05:15;9.05;;;3.08;;
71771;SDS011;59606;52.138;5.424;2023-09-30T10:10:21;9.50;;;3.20;;
71771;SDS011;59606;52.138;5.424;2023-09-30T10:12:49;12.70;;;3.28;;
71771;SDS011;59606;52.138;5.424;2023-09-30T10:18:02;9.90;;;4.13;;
71771;SDS011;59606;52.138;5.424;2023-09-30T10:20:31;8.40;;;2.45;;
71771;SDS011;59606;52.138;5.424;2023-09-30T10:25:44;10.73;;;2.65;;
71771;SDS011;59606;52.138;5.424;2023-09-30T10:31:10;6.95;;;2.38;;
71771;SDS011;59606;52.138;5.424;2023-09-30T10:36:39;12.07;;;3.05;;
71771;SDS011;59606;52.138;5.424;2023-09-30T10:39:11;10.90;;;2.58;;
71771;SDS011;59606;52.138;5.424;2023-09-30T10:46:57;7.90;;;2.00;;
71771;SDS011;59606;52.138;5.424;2023-09-30T10:51:55;9.75;;;2.80;;
71771;SDS011;59606;52.138;5.424;2023-09-30T10:54:24;9.37;;;2.67;;
71771;SDS011;59606;52.138;5.424;2023-09-30T10:56:52;10.98;;;3.00;;
71771;SDS011;59606;52.138;5.424;2023-09-30T10:59:19;8.68;;;2.63;;
71771;SDS011;59606;52.138;5.424;2023-09-30T11:01:51;10.82;;;3.03;;
71771;SDS011;59606;52.138;5.424;2023-09-30T11:04:23;26.85;;;13.27;;
71771;SDS011;59606;52.138;5.424;2023-09-30T11:06:50;9.90;;;2.63;;
71771;SDS011;59606;52.138;5.424;2023-09-30T11:09:19;9.23;;;2.65;;
71771;SDS011;59606;52.138;5.424;2023-09-30T11:11:48;11.32;;;2.22;;
71771;SDS011;59606;52.138;5.424;2023-09-30T11:14:26;8.25;;;2.20;;
71771;SDS011;59606;52.138;5.424;2023-09-30T11:16:59;12.07;;;1.92;;
71771;SDS011;59606;52.138;5.424;2023-09-30T11:19:45;6.87;;;2.03;;
71771;SDS011;59606;52.138;5.424;2023-09-30T11:22:14;8.27;;;2.03;;
71771;SDS011;59606;52.138;5.424;2023-09-30T11:24:41;7.43;;;1.80;;
71771;SDS011;59606;52.138;5.424;2023-09-30T11:27:08;6.28;;;2.20;;
71771;SDS011;59606;52.138;5.424;2023-09-30T11:29:35;8.02;;;1.98;;
71771;SDS011;59606;52.138;5.424;2023-09-30T11:32:02;9.40;;;1.90;;
71771;SDS011;59606;52.138;5.424;2023-09-30T11:34:36;6.60;;;2.03;;
71771;SDS011;59606;52.138;5.424;2023-09-30T11:37:04;8.10;;;1.98;;
71771;SDS011;59606;52.138;5.424;2023-09-30T11:39:32;7.10;;;1.60;;
71771;SDS011;59606;52.138;5.424;2023-09-30T11:41:59;9.43;;;1.67;;
71771;SDS011;59606;52.138;5.424;2023-09-30T11:44:27;9.33;;;1.63;;
71771;SDS011;59606;52.138;5.424;2023-09-30T11:49:30;4.70;;;1.35;;
71771;SDS011;59606;52.138;5.424;2023-09-30T11:52:05;4.38;;;1.30;;
71771;SDS011;59606;52.138;5.424;2023-09-30T11:54:34;7.00;;;2.03;;
71771;SDS011;59606;52.138;5.424;2023-09-30T11:57:07;6.77;;;1.80;;
71771;SDS011;59606;52.138;5.424;2023-09-30T11:59:37;10.13;;;2.40;;
71771;SDS011;59606;52.138;5.424;2023-09-30T12:02:08;8.93;;;1.90;;
71771;SDS011;59606;52.138;5.424;2023-09-30T12:04:44;9.80;;;2.60;;
71771;SDS011;59606;52.138;5.424;2023-09-30T12:07:11;9.43;;;2.40;;
71771;SDS011;59606;52.138;5.424;2023-09-30T12:09:39;9.70;;;3.00;;
71771;SDS011;59606;52.138;5.424;2023-09-30T12:12:07;6.88;;;2.08;;
71771;SDS011;59606;52.138;5.424;2023-09-30T12:14:37;7.82;;;2.03;;
71771;SDS011;59606;52.138;5.424;2023-09-30T12:17:04;9.80;;;1.70;;
71771;SDS011;59606;52.138;5.424;2023-09-30T12:19:30;7.25;;;1.80;;
71771;SDS011;59606;52.138;5.424;2023-09-30T12:21:57;5.03;;;1.37;;
71771;SDS011;59606;52.138;5.424;2023-09-30T12:24:24;7.20;;;1.55;;
71771;SDS011;59606;52.138;5.424;2023-09-30T12:26:53;11.55;;;2.17;;
71771;SDS011;59606;52.138;5.424;2023-09-30T12:29:22;7.88;;;1.65;;
71771;SDS011;59606;52.138;5.424;2023-09-30T12:31:51;8.55;;;1.83;;
71771;SDS011;59606;52.138;5.424;2023-09-30T12:34:20;7.63;;;2.23;;
71771;SDS011;59606;52.138;5.424;2023-09-30T12:36:52;7.10;;;1.73;;
71771;SDS011;59606;52.138;5.424;2023-09-30T12:39:19;5.95;;;1.63;;
71771;SDS011;59606;52.138;5.424;2023-09-30T12:41:51;8.52;;;1.80;;
71771;SDS011;59606;52.138;5.424;2023-09-30T12:44:17;5.90;;;1.50;;
71771;SDS011;59606;52.138;5.424;2023-09-30T12:46:45;6.70;;;1.60;;
71771;SDS011;59606;52.138;5.424;2023-09-30T12:49:12;9.32;;;1.60;;
71771;SDS011;59606;52.138;5.424;2023-09-30T12:51:39;6.75;;;1.60;;
71771;SDS011;59606;52.138;5.424;2023-09-30T12:54:05;8.60;;;1.90;;
71771;SDS011;59606;52.138;5.424;2023-09-30T12:56:32;4.95;;;1.60;;
71771;SDS011;59606;52.138;5.424;2023-09-30T12:58:59;6.77;;;1.80;;
71771;SDS011;59606;52.138;5.424;2023-09-30T13:01:26;6.75;;;2.17;;
71771;SDS011;59606;52.138;5.424;2023-09-30T13:03:56;6.88;;;1.80;;
71771;SDS011;59606;52.138;5.424;2023-09-30T13:06:22;8.40;;;2.40;;
71771;SDS011;59606;52.138;5.424;2023-09-30T13:08:49;8.20;;;2.10;;
71771;SDS011;59606;52.138;5.424;2023-09-30T13:11:15;6.10;;;1.63;;
71771;SDS011;59606;52.138;5.424;2023-09-30T13:13:42;5.30;;;1.65;;
71771;SDS011;59606;52.138;5.424;2023-09-30T13:16:10;8.30;;;2.15;;
71771;SDS011;59606;52.138;5.424;2023-09-30T13:18:38;7.00;;;2.17;;
71771;SDS011;59606;52.138;5.424;2023-09-30T13:21:05;6.40;;;2.17;;
71771;SDS011;59606;52.138;5.424;2023-09-30T13:23:33;7.47;;;1.60;;
71771;SDS011;59606;52.138;5.424;2023-09-30T13:26:01;11.32;;;1.90;;
71771;SDS011;59606;52.138;5.424;2023-09-30T13:28:28;8.48;;;2.22;;
71771;SDS011;59606;52.138;5.424;2023-09-30T13:30:55;9.50;;;2.15;;
71771;SDS011;59606;52.138;5.424;2023-09-30T13:33:23;9.38;;;1.63;;
71771;SDS011;59606;52.138;5.424;2023-09-30T13:35:49;7.37;;;1.47;;
71771;SDS011;59606;52.138;5.424;2023-09-30T13:38:16;7.30;;;2.22;;
71771;SDS011;59606;52.138;5.424;2023-09-30T13:40:43;7.68;;;2.22;;
71771;SDS011;59606;52.138;5.424;2023-09-30T13:43:10;8.50;;;1.90;;
71771;SDS011;59606;52.138;5.424;2023-09-30T13:45:37;9.23;;;2.08;;
71771;SDS011;59606;52.138;5.424;2023-09-30T13:48:04;9.00;;;2.13;;
71771;SDS011;59606;52.138;5.424;2023-09-30T13:50:33;7.95;;;2.10;;
71771;SDS011;59606;52.138;5.424;2023-09-30T13:53:00;8.63;;;2.70;;
71771;SDS011;59606;52.138;5.424;2023-09-30T13:55:27;9.20;;;2.20;;
71771;SDS011;59606;52.138;5.424;2023-09-30T13:57:54;12.07;;;3.20;;
71771;SDS011;59606;52.138;5.424;2023-09-30T14:00:21;11.20;;;3.07;;
71771;SDS011;59606;52.138;5.424;2023-09-30T14:02:48;5.82;;;1.98;;
71771;SDS011;59606;52.138;5.424;2023-09-30T14:05:15;10.18;;;1.80;;
71771;SDS011;59606;52.138;5.424;2023-09-30T14:07:43;6.10;;;2.45;;
71771;SDS011;59606;52.138;5.424;2023-09-30T14:10:09;12.18;;;2.55;;
71771;SDS011;59606;52.138;5.424;2023-09-30T14:12:37;9.17;;;2.60;;
71771;SDS011;59606;52.138;5.424;2023-09-30T14:15:05;9.48;;;2.38;;
71771;SDS011;59606;52.138;5.424;2023-09-30T14:17:33;7.93;;;2.47;;
71771;SDS011;59606;52.138;5.424;2023-09-30T14:20:01;10.13;;;2.30;;
71771;SDS011;59606;52.138;5.424;2023-09-30T14:22:31;8.60;;;2.58;;
71771;SDS011;59606;52.138;5.424;2023-09-30T14:24:58;12.97;;;3.17;;
71771;SDS011;59606;52.138;5.424;2023-09-30T14:27:25;8.70;;;2.40;;
71771;SDS011;59606;52.138;5.424;2023-09-30T14:29:52;8.10;;;2.80;;
71771;SDS011;59606;52.138;5.424;2023-09-30T14:32:19;11.45;;;3.15;;
71771;SDS011;59606;52.138;5.424;2023-09-30T14:34:46;8.10;;;2.08;;
71771;SDS011;59606;52.138;5.424;2023-09-30T14:37:12;11.97;;;2.90;;
71771;SDS011;59606;52.138;5.424;2023-09-30T14:39:39;11.82;;;2.58;;
71771;SDS011;59606;52.138;5.424;2023-09-30T14:42:06;9.02;;;2.40;;
71771;SDS011;59606;52.138;5.424;2023-09-30T14:44:33;7.97;;;2.78;;
71771;SDS011;59606;52.138;5.424;2023-09-30T14:46:59;11.13;;;2.65;;
71771;SDS011;59606;52.138;5.424;2023-09-30T14:49:26;10.97;;;2.60;;
71771;SDS011;59606;52.138;5.424;2023-09-30T14:51:55;9.48;;;2.30;;
71771;SDS011;59606;52.138;5.424;2023-09-30T14:54:23;9.95;;;2.67;;
71771;SDS011;59606;52.138;5.424;2023-09-30T14:56:50;9.40;;;2.17;;
71771;SDS011;59606;52.138;5.424;2023-09-30T14:59:16;7.50;;;2.33;;
71771;SDS011;59606;52.138;5.424;2023-09-30T15:01:43;9.83;;;2.90;;
71771;SDS011;59606;52.138;5.424;2023-09-30T15:04:10;9.48;;;1.90;;
71771;SDS011;59606;52.138;5.424;2023-09-30T15:06:36;10.80;;;2.75;;
71771;SDS011;59606;52.138;5.424;2023-09-30T15:09:03;6.68;;;2.53;;